OJAM/ADJ METAR and TAF weather

Enter ICAO airport designator
Station Type Date Time Source
OJAM METAR 2022/01/23 12:00 UTC NOAA

OJAM 231200Z 25013KT 7000 FEW030 SCT035 11/01 Q1014 NOSIG


Station Type Date Time Source
OJAM Decoded METAR 2022/01/23 12:00 UTC NOAA

Amman Airport, Jordan (OJAM) 31-59N 035-59E 768M
Jan 23, 2022 - 07:00 AM EST / 2022.01.23 1200 UTC
Wind: from the WSW (250 degrees) at 15 MPH (13 KT):0
Visibility: 4 mile(s):0
Sky conditions: partly cloudy
Temperature: 51 F (11 C)
Dew Point: 33 F (1 C)
Relative Humidity: 50%
Pressure (altimeter): 29.94 in. Hg (1014 hPa)
ob: OJAM 231200Z 25013KT 7000 FEW030 SCT035 11/01 Q1014 NOSIG
cycle: 12

Station Type Date Time Source
OJAM TAF 2022/01/23 12:15 UTC NOAA

TAF OJAM 231101Z 2312/2418 27010KT 5000 HZ SCT030
TEMPO 2312/2318 25015G25KT 4000 BLDU
TEMPO 2310/2412 3000 RA SCT025TCU BKN030

Example: see airport list